sensor_id;sensor_type;location;lat;lon;timestamp;P1;durP1;ratioP1;P2;durP2;ratioP2
77109;SDS011;66062;52.464;16.922;2023-11-21T00:01:15;47.17;;;16.73;;
77109;SDS011;66062;52.464;16.922;2023-11-21T00:03:40;40.75;;;15.65;;
77109;SDS011;66062;52.464;16.922;2023-11-21T00:06:06;45.47;;;16.85;;
77109;SDS011;66062;52.464;16.922;2023-11-21T00:08:34;42.85;;;16.63;;
77109;SDS011;66062;52.464;16.922;2023-11-21T00:11:01;45.65;;;16.30;;
77109;SDS011;66062;52.464;16.922;2023-11-21T00:13:26;47.47;;;17.15;;
77109;SDS011;66062;52.464;16.922;2023-11-21T00:15:52;41.88;;;15.57;;
77109;SDS011;66062;52.464;16.922;2023-11-21T00:18:17;41.80;;;16.77;;
77109;SDS011;66062;52.464;16.922;2023-11-21T00:20:43;43.58;;;17.17;;
77109;SDS011;66062;52.464;16.922;2023-11-21T00:23:08;42.45;;;16.90;;
77109;SDS011;66062;52.464;16.922;2023-11-21T00:25:34;50.92;;;17.27;;
77109;SDS011;66062;52.464;16.922;2023-11-21T00:28:00;45.33;;;17.25;;
77109;SDS011;66062;52.464;16.922;2023-11-21T00:30:26;50.20;;;18.33;;
77109;SDS011;66062;52.464;16.922;2023-11-21T00:32:53;56.65;;;20.20;;
77109;SDS011;66062;52.464;16.922;2023-11-21T00:35:20;55.03;;;19.05;;
77109;SDS011;66062;52.464;16.922;2023-11-21T00:37:46;42.20;;;17.92;;
77109;SDS011;66062;52.464;16.922;2023-11-21T00:40:12;52.33;;;19.15;;
77109;SDS011;66062;52.464;16.922;2023-11-21T00:42:40;61.75;;;19.02;;
77109;SDS011;66062;52.464;16.922;2023-11-21T00:45:06;46.45;;;17.15;;
77109;SDS011;66062;52.464;16.922;2023-11-21T00:47:32;50.20;;;17.70;;
77109;SDS011;66062;52.464;16.922;2023-11-21T00:49:57;51.05;;;18.98;;
77109;SDS011;66062;52.464;16.922;2023-11-21T00:52:23;55.88;;;19.60;;
77109;SDS011;66062;52.464;16.922;2023-11-21T00:54:48;47.20;;;18.25;;
77109;SDS011;66062;52.464;16.922;2023-11-21T00:57:14;59.50;;;20.58;;
77109;SDS011;66062;52.464;16.922;2023-11-21T00:59:40;49.00;;;18.25;;
77109;SDS011;66062;52.464;16.922;2023-11-21T01:02:05;56.75;;;19.52;;
77109;SDS011;66062;52.464;16.922;2023-11-21T01:04:30;60.38;;;20.65;;
77109;SDS011;66062;52.464;16.922;2023-11-21T01:06:57;56.85;;;20.35;;
77109;SDS011;66062;52.464;16.922;2023-11-21T01:09:23;58.25;;;20.10;;
77109;SDS011;66062;52.464;16.922;2023-11-21T01:11:49;58.40;;;19.52;;
77109;SDS011;66062;52.464;16.922;2023-11-21T01:14:14;59.50;;;19.63;;
77109;SDS011;66062;52.464;16.922;2023-11-21T01:16:40;57.20;;;19.50;;
77109;SDS011;66062;52.464;16.922;2023-11-21T01:19:05;71.30;;;20.73;;
77109;SDS011;66062;52.464;16.922;2023-11-21T01:21:31;61.08;;;21.05;;
77109;SDS011;66062;52.464;16.922;2023-11-21T01:23:57;68.72;;;21.67;;
77109;SDS011;66062;52.464;16.922;2023-11-21T01:26:22;63.17;;;21.70;;
77109;SDS011;66062;52.464;16.922;2023-11-21T01:28:47;62.25;;;21.05;;
77109;SDS011;66062;52.464;16.922;2023-11-21T01:31:16;61.83;;;22.65;;
77109;SDS011;66062;52.464;16.922;2023-11-21T01:33:41;72.13;;;22.13;;
77109;SDS011;66062;52.464;16.922;2023-11-21T01:36:07;67.22;;;22.05;;
77109;SDS011;66062;52.464;16.922;2023-11-21T01:38:33;62.05;;;20.67;;
77109;SDS011;66062;52.464;16.922;2023-11-21T01:40:59;79.07;;;22.05;;
77109;SDS011;66062;52.464;16.922;2023-11-21T01:43:26;72.50;;;22.17;;
77109;SDS011;66062;52.464;16.922;2023-11-21T01:45:51;69.25;;;21.77;;
77109;SDS011;66062;52.464;16.922;2023-11-21T01:48:18;74.78;;;22.35;;
77109;SDS011;66062;52.464;16.922;2023-11-21T01:50:44;71.85;;;22.85;;
77109;SDS011;66062;52.464;16.922;2023-11-21T01:53:11;65.80;;;22.65;;
77109;SDS011;66062;52.464;16.922;2023-11-21T01:55:38;81.32;;;22.17;;
77109;SDS011;66062;52.464;16.922;2023-11-21T01:58:06;69.60;;;22.35;;
77109;SDS011;66062;52.464;16.922;2023-11-21T02:00:32;66.80;;;22.40;;
77109;SDS011;66062;52.464;16.922;2023-11-21T02:02:58;67.72;;;21.27;;
77109;SDS011;66062;52.464;16.922;2023-11-21T02:05:24;69.18;;;22.48;;
77109;SDS011;66062;52.464;16.922;2023-11-21T02:07:51;62.85;;;22.55;;
77109;SDS011;66062;52.464;16.922;2023-11-21T02:10:17;68.72;;;23.88;;
77109;SDS011;66062;52.464;16.922;2023-11-21T02:12:47;63.50;;;22.05;;
77109;SDS011;66062;52.464;16.922;2023-11-21T02:15:15;70.25;;;21.75;;
77109;SDS011;66062;52.464;16.922;2023-11-21T02:17:45;66.15;;;20.95;;
77109;SDS011;66062;52.464;16.922;2023-11-21T02:20:17;73.30;;;22.55;;
77109;SDS011;66062;52.464;16.922;2023-11-21T02:23:16;70.65;;;23.25;;
77109;SDS011;66062;52.464;16.922;2023-11-21T02:25:34;72.38;;;21.02;;
77109;SDS011;66062;52.464;16.922;2023-11-21T02:28:02;64.22;;;22.50;;
77109;SDS011;66062;52.464;16.922;2023-11-21T02:30:29;70.13;;;22.38;;
77109;SDS011;66062;52.464;16.922;2023-11-21T02:32:57;60.65;;;20.42;;
77109;SDS011;66062;52.464;16.922;2023-11-21T02:35:23;68.53;;;21.95;;
77109;SDS011;66062;52.464;16.922;2023-11-21T02:37:51;65.00;;;22.00;;
77109;SDS011;66062;52.464;16.922;2023-11-21T02:40:16;82.88;;;22.27;;
77109;SDS011;66062;52.464;16.922;2023-11-21T02:42:48;63.35;;;21.40;;
77109;SDS011;66062;52.464;16.922;2023-11-21T02:45:16;72.57;;;23.38;;
77109;SDS011;66062;52.464;16.922;2023-11-21T02:47:42;70.00;;;22.70;;
77109;SDS011;66062;52.464;16.922;2023-11-21T02:50:08;74.93;;;23.60;;
77109;SDS011;66062;52.464;16.922;2023-11-21T02:52:34;67.13;;;20.80;;
77109;SDS011;66062;52.464;16.922;2023-11-21T02:55:03;69.38;;;23.40;;
77109;SDS011;66062;52.464;16.922;2023-11-21T02:57:29;66.25;;;22.00;;
77109;SDS011;66062;52.464;16.922;2023-11-21T02:59:55;70.90;;;23.13;;
77109;SDS011;66062;52.464;16.922;2023-11-21T03:02:21;65.60;;;22.13;;
77109;SDS011;66062;52.464;16.922;2023-11-21T03:04:47;69.72;;;22.42;;
77109;SDS011;66062;52.464;16.922;2023-11-21T03:07:14;69.20;;;22.38;;
77109;SDS011;66062;52.464;16.922;2023-11-21T03:09:40;67.70;;;22.42;;
77109;SDS011;66062;52.464;16.922;2023-11-21T03:12:05;70.88;;;21.90;;
77109;SDS011;66062;52.464;16.922;2023-11-21T03:14:31;65.32;;;20.95;;
77109;SDS011;66062;52.464;16.922;2023-11-21T03:16:56;67.57;;;22.00;;
77109;SDS011;66062;52.464;16.922;2023-11-21T03:19:22;68.60;;;21.63;;
77109;SDS011;66062;52.464;16.922;2023-11-21T03:21:48;65.63;;;20.13;;
77109;SDS011;66062;52.464;16.922;2023-11-21T03:24:13;61.72;;;20.58;;
77109;SDS011;66062;52.464;16.922;2023-11-21T03:26:44;63.70;;;21.48;;
77109;SDS011;66062;52.464;16.922;2023-11-21T03:31:35;55.63;;;18.77;;
77109;SDS011;66062;52.464;16.922;2023-11-21T03:34:01;45.13;;;17.42;;
77109;SDS011;66062;52.464;16.922;2023-11-21T03:36:26;48.35;;;17.52;;
77109;SDS011;66062;52.464;16.922;2023-11-21T03:38:52;41.13;;;15.98;;
77109;SDS011;66062;52.464;16.922;2023-11-21T03:41:17;45.03;;;16.02;;
77109;SDS011;66062;52.464;16.922;2023-11-21T03:43:43;41.33;;;14.85;;
77109;SDS011;66062;52.464;16.922;2023-11-21T03:46:08;39.05;;;14.60;;
77109;SDS011;66062;52.464;16.922;2023-11-21T03:48:35;40.95;;;15.55;;
77109;SDS011;66062;52.464;16.922;2023-11-21T03:51:00;42.70;;;15.07;;
77109;SDS011;66062;52.464;16.922;2023-11-21T03:53:26;36.58;;;13.43;;
77109;SDS011;66062;52.464;16.922;2023-11-21T03:55:51;41.25;;;13.52;;
77109;SDS011;66062;52.464;16.922;2023-11-21T03:58:17;41.10;;;14.32;;
77109;SDS011;66062;52.464;16.922;2023-11-21T04:00:42;38.47;;;14.82;;
77109;SDS011;66062;52.464;16.922;2023-11-21T04:03:08;41.65;;;15.18;;
77109;SDS011;66062;52.464;16.922;2023-11-21T04:05:33;43.70;;;14.73;;
77109;SDS011;66062;52.464;16.922;2023-11-21T04:07:58;34.95;;;14.43;;
77109;SDS011;66062;52.464;16.922;2023-11-21T04:10:24;41.20;;;14.70;;
77109;SDS011;66062;52.464;16.922;2023-11-21T04:12:49;38.72;;;15.60;;
77109;SDS011;66062;52.464;16.922;2023-11-21T04:15:15;38.72;;;13.70;;
77109;SDS011;66062;52.464;16.922;2023-11-21T04:17:40;41.47;;;14.23;;
77109;SDS011;66062;52.464;16.922;2023-11-21T04:20:07;37.42;;;13.63;;
77109;SDS011;66062;52.464;16.922;2023-11-21T04:22:40;37.50;;;13.48;;
77109;SDS011;66062;52.464;16.922;2023-11-21T04:25:10;33.05;;;12.43;;
77109;SDS011;66062;52.464;16.922;2023-11-21T04:27:36;31.50;;;12.52;;
77109;SDS011;66062;52.464;16.922;2023-11-21T04:30:03;26.55;;;10.40;;
77109;SDS011;66062;52.464;16.922;2023-11-21T04:32:30;24.17;;;11.00;;
77109;SDS011;66062;52.464;16.922;2023-11-21T04:34:55;22.20;;;9.80;;
77109;SDS011;66062;52.464;16.922;2023-11-21T04:37:21;23.70;;;9.63;;
77109;SDS011;66062;52.464;16.922;2023-11-21T04:39:46;18.50;;;8.30;;
77109;SDS011;66062;52.464;16.922;2023-11-21T04:42:12;22.25;;;9.32;;
77109;SDS011;66062;52.464;16.922;2023-11-21T04:44:37;19.33;;;8.45;;
77109;SDS011;66062;52.464;16.922;2023-11-21T04:47:05;22.40;;;9.48;;
77109;SDS011;66062;52.464;16.922;2023-11-21T04:49:31;21.42;;;8.73;;
77109;SDS011;66062;52.464;16.922;2023-11-21T04:51:56;16.25;;;8.25;;
77109;SDS011;66062;52.464;16.922;2023-11-21T04:54:22;17.50;;;8.40;;
77109;SDS011;66062;52.464;16.922;2023-11-21T04:56:47;17.58;;;8.05;;
77109;SDS011;66062;52.464;16.922;2023-11-21T04:59:13;15.40;;;7.20;;
77109;SDS011;66062;52.464;16.922;2023-11-21T05:01:38;12.52;;;6.35;;
77109;SDS011;66062;52.464;16.922;2023-11-21T05:04:04;14.00;;;6.43;;
77109;SDS011;66062;52.464;16.922;2023-11-21T05:06:31;11.30;;;6.35;;
77109;SDS011;66062;52.464;16.922;2023-11-21T05:08:57;16.20;;;7.72;;
77109;SDS011;66062;52.464;16.922;2023-11-21T05:11:27;12.40;;;6.38;;
77109;SDS011;66062;52.464;16.922;2023-11-21T05:13:54;12.60;;;6.72;;
77109;SDS011;66062;52.464;16.922;2023-11-21T05:16:21;11.63;;;6.65;;
77109;SDS011;66062;52.464;16.922;2023-11-21T05:18:47;10.43;;;5.28;;
77109;SDS011;66062;52.464;16.922;2023-11-21T05:21:12;12.27;;;6.40;;
77109;SDS011;66062;52.464;16.922;2023-11-21T05:23:38;10.20;;;5.43;;
77109;SDS011;66062;52.464;16.922;2023-11-21T05:26:03;11.05;;;5.97;;
77109;SDS011;66062;52.464;16.922;2023-11-21T05:28:29;10.35;;;5.82;;
77109;SDS011;66062;52.464;16.922;2023-11-21T05:30:54;9.85;;;5.47;;
77109;SDS011;66062;52.464;16.922;2023-11-21T05:33:20;12.57;;;5.90;;
77109;SDS011;66062;52.464;16.922;2023-11-21T05:35:45;11.90;;;6.28;;
77109;SDS011;66062;52.464;16.922;2023-11-21T05:38:11;11.85;;;6.53;;
77109;SDS011;66062;52.464;16.922;2023-11-21T05:40:36;15.82;;;6.63;;
77109;SDS011;66062;52.464;16.922;2023-11-21T05:43:02;13.52;;;6.22;;
77109;SDS011;66062;52.464;16.922;2023-11-21T05:45:28;10.60;;;5.78;;
77109;SDS011;66062;52.464;16.922;2023-11-21T05:47:54;12.60;;;6.00;;
77109;SDS011;66062;52.464;16.922;2023-11-21T05:50:20;11.02;;;6.85;;
77109;SDS011;66062;52.464;16.922;2023-11-21T05:52:48;12.05;;;5.88;;
77109;SDS011;66062;52.464;16.922;2023-11-21T05:55:13;15.23;;;7.65;;
77109;SDS011;66062;52.464;16.922;2023-11-21T05:57:39;11.70;;;6.00;;
77109;SDS011;66062;52.464;16.922;2023-11-21T06:00:06;11.52;;;6.38;;
77109;SDS011;66062;52.464;16.922;2023-11-21T06:02:39;11.52;;;6.95;;
77109;SDS011;66062;52.464;16.922;2023-11-21T06:05:08;14.40;;;6.97;;
77109;SDS011;66062;52.464;16.922;2023-11-21T06:07:34;14.73;;;7.47;;
77109;SDS011;66062;52.464;16.922;2023-11-21T06:10:01;13.07;;;7.43;;
77109;SDS011;66062;52.464;16.922;2023-11-21T06:12:28;15.32;;;7.90;;
77109;SDS011;66062;52.464;16.922;2023-11-21T06:14:54;12.73;;;7.95;;
77109;SDS011;66062;52.464;16.922;2023-11-21T06:17:20;17.25;;;8.70;;
77109;SDS011;66062;52.464;16.922;2023-11-21T06:19:46;16.58;;;8.43;;
77109;SDS011;66062;52.464;16.922;2023-11-21T06:22:11;20.55;;;8.10;;
77109;SDS011;66062;52.464;16.922;2023-11-21T06:24:37;17.17;;;8.60;;
77109;SDS011;66062;52.464;16.922;2023-11-21T06:27:05;17.77;;;9.70;;
77109;SDS011;66062;52.464;16.922;2023-11-21T06:29:31;17.35;;;8.82;;
77109;SDS011;66062;52.464;16.922;2023-11-21T06:31:57;19.13;;;8.95;;
77109;SDS011;66062;52.464;16.922;2023-11-21T06:34:23;15.98;;;8.15;;
77109;SDS011;66062;52.464;16.922;2023-11-21T06:36:49;16.40;;;8.95;;
77109;SDS011;66062;52.464;16.922;2023-11-21T06:39:14;18.40;;;9.57;;
77109;SDS011;66062;52.464;16.922;2023-11-21T06:41:41;15.93;;;7.85;;
77109;SDS011;66062;52.464;16.922;2023-11-21T06:44:08;16.77;;;8.50;;
77109;SDS011;66062;52.464;16.922;2023-11-21T06:46:33;16.55;;;9.23;;
77109;SDS011;66062;52.464;16.922;2023-11-21T06:48:59;16.55;;;8.70;;
77109;SDS011;66062;52.464;16.922;2023-11-21T06:51:24;14.40;;;8.38;;
77109;SDS011;66062;52.464;16.922;2023-11-21T06:53:50;19.60;;;10.35;;
77109;SDS011;66062;52.464;16.922;2023-11-21T06:56:16;15.98;;;8.85;;
77109;SDS011;66062;52.464;16.922;2023-11-21T06:58:45;16.73;;;8.20;;
77109;SDS011;66062;52.464;16.922;2023-11-21T07:01:11;14.50;;;8.30;;
77109;SDS011;66062;52.464;16.922;2023-11-21T07:03:38;17.67;;;8.27;;
77109;SDS011;66062;52.464;16.922;2023-11-21T07:06:03;15.20;;;7.72;;
77109;SDS011;66062;52.464;16.922;2023-11-21T07:08:29;15.25;;;8.25;;
77109;SDS011;66062;52.464;16.922;2023-11-21T07:10:55;15.88;;;7.85;;
77109;SDS011;66062;52.464;16.922;2023-11-21T07:13:20;15.60;;;7.57;;
77109;SDS011;66062;52.464;16.922;2023-11-21T07:15:46;17.23;;;8.70;;
77109;SDS011;66062;52.464;16.922;2023-11-21T07:18:12;16.55;;;8.45;;
77109;SDS011;66062;52.464;16.922;2023-11-21T07:20:38;15.52;;;7.88;;
77109;SDS011;66062;52.464;16.922;2023-11-21T07:23:03;15.60;;;8.90;;
77109;SDS011;66062;52.464;16.922;2023-11-21T07:25:29;16.70;;;8.48;;
77109;SDS011;66062;52.464;16.922;2023-11-21T07:27:54;14.77;;;8.48;;
77109;SDS011;66062;52.464;16.922;2023-11-21T07:30:20;16.40;;;8.77;;
77109;SDS011;66062;52.464;16.922;2023-11-21T07:32:47;14.68;;;8.43;;
77109;SDS011;66062;52.464;16.922;2023-11-21T07:35:13;17.23;;;9.10;;
77109;SDS011;66062;52.464;16.922;2023-11-21T07:37:38;17.98;;;9.05;;
77109;SDS011;66062;52.464;16.922;2023-11-21T07:40:04;16.15;;;8.63;;
77109;SDS011;66062;52.464;16.922;2023-11-21T07:42:30;13.13;;;6.60;;
77109;SDS011;66062;52.464;16.922;2023-11-21T07:44:55;13.05;;;7.50;;
77109;SDS011;66062;52.464;16.922;2023-11-21T07:47:21;14.23;;;8.20;;
77109;SDS011;66062;52.464;16.922;2023-11-21T07:49:47;13.15;;;7.28;;
77109;SDS011;66062;52.464;16.922;2023-11-21T07:52:13;15.98;;;8.20;;
77109;SDS011;66062;52.464;16.922;2023-11-21T07:54:41;13.73;;;6.63;;
77109;SDS011;66062;52.464;16.922;2023-11-21T07:57:07;15.85;;;6.90;;
77109;SDS011;66062;52.464;16.922;2023-11-21T07:59:32;13.68;;;6.32;;
77109;SDS011;66062;52.464;16.922;2023-11-21T08:01:58;10.77;;;5.57;;
77109;SDS011;66062;52.464;16.922;2023-11-21T08:04:23;12.57;;;6.20;;
77109;SDS011;66062;52.464;16.922;2023-11-21T08:06:48;11.68;;;6.10;;
77109;SDS011;66062;52.464;16.922;2023-11-21T08:09:14;12.15;;;6.38;;
77109;SDS011;66062;52.464;16.922;2023-11-21T08:11:40;13.02;;;6.55;;
77109;SDS011;66062;52.464;16.922;2023-11-21T08:14:06;13.10;;;7.35;;
77109;SDS011;66062;52.464;16.922;2023-11-21T08:16:31;13.13;;;6.47;;
77109;SDS011;66062;52.464;16.922;2023-11-21T08:18:57;10.10;;;5.68;;
77109;SDS011;66062;52.464;16.922;2023-11-21T08:21:22;12.50;;;6.78;;
77109;SDS011;66062;52.464;16.922;2023-11-21T08:23:49;14.23;;;7.07;;
77109;SDS011;66062;52.464;16.922;2023-11-21T08:26:19;15.93;;;6.90;;
77109;SDS011;66062;52.464;16.922;2023-11-21T08:28:44;12.90;;;6.22;;
77109;SDS011;66062;52.464;16.922;2023-11-21T08:31:10;11.88;;;6.03;;
77109;SDS011;66062;52.464;16.922;2023-11-21T08:33:35;12.77;;;6.60;;
77109;SDS011;66062;52.464;16.922;2023-11-21T08:36:01;15.52;;;8.32;;
77109;SDS011;66062;52.464;16.922;2023-11-21T08:38:32;14.38;;;7.50;;
77109;SDS011;66062;52.464;16.922;2023-11-21T08:40:58;17.23;;;8.65;;
77109;SDS011;66062;52.464;16.922;2023-11-21T08:43:25;17.77;;;9.15;;
77109;SDS011;66062;52.464;16.922;2023-11-21T08:45:52;18.83;;;8.32;;
77109;SDS011;66062;52.464;16.922;2023-11-21T08:48:17;19.52;;;9.30;;
77109;SDS011;66062;52.464;16.922;2023-11-21T08:50:43;15.50;;;8.40;;
77109;SDS011;66062;52.464;16.922;2023-11-21T08:53:15;18.80;;;9.30;;
77109;SDS011;66062;52.464;16.922;2023-11-21T08:55:41;19.38;;;8.38;;
77109;SDS011;66062;52.464;16.922;2023-11-21T09:00:34;16.90;;;8.82;;
77109;SDS011;66062;52.464;16.922;2023-11-21T09:03:03;21.95;;;11.02;;
77109;SDS011;66062;52.464;16.922;2023-11-21T09:05:29;19.52;;;10.95;;
77109;SDS011;66062;52.464;16.922;2023-11-21T09:07:55;21.90;;;10.70;;
77109;SDS011;66062;52.464;16.922;2023-11-21T09:10:20;18.08;;;10.07;;
77109;SDS011;66062;52.464;16.922;2023-11-21T09:12:45;18.75;;;9.85;;
77109;SDS011;66062;52.464;16.922;2023-11-21T09:15:11;22.33;;;10.30;;
77109;SDS011;66062;52.464;16.922;2023-11-21T09:17:36;16.35;;;8.88;;
77109;SDS011;66062;52.464;16.922;2023-11-21T09:20:02;19.95;;;9.85;;
77109;SDS011;66062;52.464;16.922;2023-11-21T09:22:30;26.92;;;11.77;;
77109;SDS011;66062;52.464;16.922;2023-11-21T09:24:56;25.20;;;12.15;;
77109;SDS011;66062;52.464;16.922;2023-11-21T09:27:22;23.35;;;10.73;;
77109;SDS011;66062;52.464;16.922;2023-11-21T09:29:48;24.77;;;11.95;;
77109;SDS011;66062;52.464;16.922;2023-11-21T09:32:14;25.50;;;12.38;;
77109;SDS011;66062;52.464;16.922;2023-11-21T09:34:41;23.33;;;11.05;;
77109;SDS011;66062;52.464;16.922;2023-11-21T09:37:06;22.67;;;10.45;;
77109;SDS011;66062;52.464;16.922;2023-11-21T09:39:33;21.83;;;11.73;;
77109;SDS011;66062;52.464;16.922;2023-11-21T09:42:08;22.50;;;12.40;;
77109;SDS011;66062;52.464;16.922;2023-11-21T09:44:46;26.27;;;11.02;;
77109;SDS011;66062;52.464;16.922;2023-11-21T09:47:20;23.55;;;13.02;;
77109;SDS011;66062;52.464;16.922;2023-11-21T09:49:47;23.73;;;12.68;;
77109;SDS011;66062;52.464;16.922;2023-11-21T09:52:26;22.45;;;11.45;;
77109;SDS011;66062;52.464;16.922;2023-11-21T09:54:53;23.10;;;11.73;;
77109;SDS011;66062;52.464;16.922;2023-11-21T09:57:22;22.02;;;11.38;;
77109;SDS011;66062;52.464;16.922;2023-11-21T09:59:52;19.67;;;10.43;;
77109;SDS011;66062;52.464;16.922;2023-11-21T10:02:24;23.45;;;11.52;;
77109;SDS011;66062;52.464;16.922;2023-11-21T10:04:53;25.92;;;12.45;;
77109;SDS011;66062;52.464;16.922;2023-11-21T10:07:19;20.90;;;11.48;;
77109;SDS011;66062;52.464;16.922;2023-11-21T10:09:46;21.75;;;11.30;;
77109;SDS011;66062;52.464;16.922;2023-11-21T10:12:13;24.48;;;13.00;;
77109;SDS011;66062;52.464;16.922;2023-11-21T10:14:40;25.63;;;12.50;;
77109;SDS011;66062;52.464;16.922;2023-11-21T10:17:08;29.13;;;13.38;;
77109;SDS011;66062;52.464;16.922;2023-11-21T10:19:37;24.10;;;11.60;;
77109;SDS011;66062;52.464;16.922;2023-11-21T10:22:04;25.75;;;12.73;;
77109;SDS011;66062;52.464;16.922;2023-11-21T10:24:32;24.50;;;11.98;;
77109;SDS011;66062;52.464;16.922;2023-11-21T10:26:57;24.63;;;12.35;;
77109;SDS011;66062;52.464;16.922;2023-11-21T10:29:23;27.65;;;12.68;;
77109;SDS011;66062;52.464;16.922;2023-11-21T10:31:49;30.02;;;13.05;;
77109;SDS011;66062;52.464;16.922;2023-11-21T10:34:19;22.80;;;11.40;;
77109;SDS011;66062;52.464;16.922;2023-11-21T10:36:46;26.85;;;12.45;;
77109;SDS011;66062;52.464;16.922;2023-11-21T10:39:18;26.42;;;12.93;;
77109;SDS011;66062;52.464;16.922;2023-11-21T10:41:45;23.50;;;12.48;;
77109;SDS011;66062;52.464;16.922;2023-11-21T10:44:14;24.42;;;12.52;;
77109;SDS011;66062;52.464;16.922;2023-11-21T10:46:49;23.73;;;12.88;;
77109;SDS011;66062;52.464;16.922;2023-11-21T10:49:21;27.17;;;13.23;;
77109;SDS011;66062;52.464;16.922;2023-11-21T10:51:49;27.65;;;14.65;;
77109;SDS011;66062;52.464;16.922;2023-11-21T10:54:17;27.92;;;13.18;;
77109;SDS011;66062;52.464;16.922;2023-11-21T10:56:46;26.15;;;13.32;;
77109;SDS011;66062;52.464;16.922;2023-11-21T10:59:22;22.23;;;11.93;;
77109;SDS011;66062;52.464;16.922;2023-11-21T11:01:50;24.77;;;11.93;;
77109;SDS011;66062;52.464;16.922;2023-11-21T11:04:20;28.33;;;11.77;;
77109;SDS011;66062;52.464;16.922;2023-11-21T11:07:05;24.45;;;12.57;;
77109;SDS011;66062;52.464;16.922;2023-11-21T11:09:37;24.48;;;12.38;;
77109;SDS011;66062;52.464;16.922;2023-11-21T11:12:02;21.25;;;10.63;;
77109;SDS011;66062;52.464;16.922;2023-11-21T11:14:29;22.95;;;12.07;;
77109;SDS011;66062;52.464;16.922;2023-11-21T11:16:55;25.73;;;13.55;;
77109;SDS011;66062;52.464;16.922;2023-11-21T11:19:24;29.08;;;12.55;;
77109;SDS011;66062;52.464;16.922;2023-11-21T11:24:33;26.15;;;12.90;;
77109;SDS011;66062;52.464;16.922;2023-11-21T11:30:16;26.98;;;14.68;;
77109;SDS011;66062;52.464;16.922;2023-11-21T11:33:10;26.90;;;12.80;;
77109;SDS011;66062;52.464;16.922;2023-11-21T11:38:10;25.20;;;13.15;;
77109;SDS011;66062;52.464;16.922;2023-11-21T11:40:39;26.52;;;13.65;;
77109;SDS011;66062;52.464;16.922;2023-11-21T11:43:12;26.85;;;13.75;;
77109;SDS011;66062;52.464;16.922;2023-11-21T11:45:37;29.52;;;14.25;;
77109;SDS011;66062;52.464;16.922;2023-11-21T11:48:07;33.40;;;15.35;;
77109;SDS011;66062;52.464;16.922;2023-11-21T11:50:33;31.67;;;14.93;;
77109;SDS011;66062;52.464;16.922;2023-11-21T11:53:12;37.50;;;17.50;;
77109;SDS011;66062;52.464;16.922;2023-11-21T11:55:39;29.55;;;14.38;;
77109;SDS011;66062;52.464;16.922;2023-11-21T11:58:08;29.80;;;13.88;;
77109;SDS011;66062;52.464;16.922;2023-11-21T12:00:34;27.33;;;13.55;;
77109;SDS011;66062;52.464;16.922;2023-11-21T12:03:02;28.02;;;14.93;;
77109;SDS011;66062;52.464;16.922;2023-11-21T12:05:29;34.35;;;14.50;;
77109;SDS011;66062;52.464;16.922;2023-11-21T12:07:59;34.25;;;14.52;;
77109;SDS011;66062;52.464;16.922;2023-11-21T12:10:26;35.45;;;15.50;;
77109;SDS011;66062;52.464;16.922;2023-11-21T12:15:23;30.33;;;14.10;;
77109;SDS011;66062;52.464;16.922;2023-11-21T12:17:49;30.27;;;14.63;;
77109;SDS011;66062;52.464;16.922;2023-11-21T12:20:18;27.38;;;12.85;;
77109;SDS011;66062;52.464;16.922;2023-11-21T12:22:45;28.58;;;12.98;;
77109;SDS011;66062;52.464;16.922;2023-11-21T12:25:15;31.27;;;13.82;;
77109;SDS011;66062;52.464;16.922;2023-11-21T12:27:43;36.47;;;13.50;;
77109;SDS011;66062;52.464;16.922;2023-11-21T12:30:10;27.38;;;13.45;;
77109;SDS011;66062;52.464;16.922;2023-11-21T12:32:40;26.70;;;13.32;;
77109;SDS011;66062;52.464;16.922;2023-11-21T12:35:07;29.70;;;13.27;;
77109;SDS011;66062;52.464;16.922;2023-11-21T12:37:35;28.55;;;13.27;;
77109;SDS011;66062;52.464;16.922;2023-11-21T12:40:03;29.40;;;12.93;;
77109;SDS011;66062;52.464;16.922;2023-11-21T12:42:29;29.90;;;12.93;;
77109;SDS011;66062;52.464;16.922;2023-11-21T12:45:08;20.67;;;10.40;;
77109;SDS011;66062;52.464;16.922;2023-11-21T12:47:45;28.52;;;11.93;;
77109;SDS011;66062;52.464;16.922;2023-11-21T12:50:15;25.58;;;13.18;;
77109;SDS011;66062;52.464;16.922;2023-11-21T12:52:47;30.92;;;12.43;;
77109;SDS011;66062;52.464;16.922;2023-11-21T12:55:13;24.45;;;13.05;;
77109;SDS011;66062;52.464;16.922;2023-11-21T13:00:08;22.70;;;11.02;;
77109;SDS011;66062;52.464;16.922;2023-11-21T13:02:40;23.90;;;11.63;;
77109;SDS011;66062;52.464;16.922;2023-11-21T13:05:07;32.67;;;13.25;;
77109;SDS011;66062;52.464;16.922;2023-11-21T13:07:43;28.98;;;12.25;;
77109;SDS011;66062;52.464;16.922;2023-11-21T13:10:15;28.88;;;13.10;;
77109;SDS011;66062;52.464;16.922;2023-11-21T13:12:48;27.77;;;13.18;;
77109;SDS011;66062;52.464;16.922;2023-11-21T13:15:13;23.88;;;11.88;;
77109;SDS011;66062;52.464;16.922;2023-11-21T13:17:43;25.25;;;11.13;;
77109;SDS011;66062;52.464;16.922;2023-11-21T13:20:11;25.35;;;10.98;;
77109;SDS011;66062;52.464;16.922;2023-11-21T13:22:52;22.83;;;10.57;;
77109;SDS011;66062;52.464;16.922;2023-11-21T13:25:24;28.70;;;11.43;;
77109;SDS011;66062;52.464;16.922;2023-11-21T13:27:55;26.75;;;12.30;;
77109;SDS011;66062;52.464;16.922;2023-11-21T13:30:22;28.95;;;11.98;;
77109;SDS011;66062;52.464;16.922;2023-11-21T13:32:52;23.08;;;10.50;;
77109;SDS011;66062;52.464;16.922;2023-11-21T13:35:22;28.65;;;11.90;;
77109;SDS011;66062;52.464;16.922;2023-11-21T13:38:09;25.45;;;11.40;;
77109;SDS011;66062;52.464;16.922;2023-11-21T13:40:41;29.20;;;12.75;;
77109;SDS011;66062;52.464;16.922;2023-11-21T13:43:14;29.25;;;12.05;;
77109;SDS011;66062;52.464;16.922;2023-11-21T13:45:40;25.02;;;11.00;;
77109;SDS011;66062;52.464;16.922;2023-11-21T13:48:07;29.98;;;13.18;;
77109;SDS011;66062;52.464;16.922;2023-11-21T13:50:37;28.42;;;11.85;;
77109;SDS011;66062;52.464;16.922;2023-11-21T13:53:04;28.85;;;11.48;;
77109;SDS011;66062;52.464;16.922;2023-11-21T13:55:41;30.88;;;11.77;;
77109;SDS011;66062;52.464;16.922;2023-11-21T13:58:07;26.92;;;11.63;;
77109;SDS011;66062;52.464;16.922;2023-11-21T14:00:36;26.77;;;11.73;;
77109;SDS011;66062;52.464;16.922;2023-11-21T14:03:12;26.98;;;13.25;;
77109;SDS011;66062;52.464;16.922;2023-11-21T14:05:46;23.83;;;10.52;;
77109;SDS011;66062;52.464;16.922;2023-11-21T14:08:16;21.73;;;10.82;;
77109;SDS011;66062;52.464;16.922;2023-11-21T14:10:49;25.42;;;10.70;;
77109;SDS011;66062;52.464;16.922;2023-11-21T14:13:22;23.30;;;11.00;;
77109;SDS011;66062;52.464;16.922;2023-11-21T14:15:49;24.85;;;11.07;;
77109;SDS011;66062;52.464;16.922;2023-11-21T14:18:22;28.33;;;12.10;;
77109;SDS011;66062;52.464;16.922;2023-11-21T14:21:06;25.27;;;11.40;;
77109;SDS011;66062;52.464;16.922;2023-11-21T14:23:33;28.38;;;12.95;;
77109;SDS011;66062;52.464;16.922;2023-11-21T14:26:01;28.90;;;14.27;;
77109;SDS011;66062;52.464;16.922;2023-11-21T14:28:26;28.42;;;12.63;;
77109;SDS011;66062;52.464;16.922;2023-11-21T14:30:52;25.85;;;11.75;;
77109;SDS011;66062;52.464;16.922;2023-11-21T14:33:17;27.83;;;11.75;;